Time;durP1;ratioP1;P1;durP2;ratioP2;P2;SDS_P1;SDS_P2;PMS_P1;PMS_P2;Temp;Humidity;BMP_temperature;BMP_pressure;BME280_temperature;BME280_humidity;BME280_pressure;Samples;Min_cycle;Max_cycle;Signal;HPM_P1;HPM_P2
2022/03/19 00:01:27;;;;;;;33.85;13.07;;;;;;;;;;4969609;28;20355;-61
2022/03/19 00:03:52;;;;;;;31.92;13.15;;;;;;;;;;4969548;28;20460;-61
2022/03/19 00:06:18;;;;;;;34.95;13.52;;;;;;;;;;4969945;28;20139;-61
2022/03/19 00:08:43;;;;;;;34.95;12.48;;;;;;;;;;4969382;28;20120;-61
2022/03/19 00:11:08;;;;;;;29.23;13.05;;;;;;;;;;4951234;28;20108;-61
2022/03/19 00:13:34;;;;;;;32.83;13.38;;;;;;;;;;4969307;28;20373;-61
2022/03/19 00:15:59;;;;;;;37.05;14.45;;;;;;;;;;4970142;28;20324;-64
2022/03/19 00:18:24;;;;;;;30.80;13.13;;;;;;;;;;4969605;28;20453;-61
2022/03/19 00:20:50;;;;;;;28.33;11.68;;;;;;;;;;4969784;28;20052;-61
2022/03/19 00:23:15;;;;;;;32.42;12.55;;;;;;;;;;4951346;28;20052;-61
2022/03/19 00:25:41;;;;;;;34.00;13.77;;;;;;;;;;4952023;28;20419;-61
2022/03/19 00:28:07;;;;;;;32.08;13.38;;;;;;;;;;4969817;28;20466;-63
2022/03/19 00:30:33;;;;;;;32.70;12.52;;;;;;;;;;4969103;28;20364;-61
2022/03/19 00:32:58;;;;;;;28.55;12.30;;;;;;;;;;4969474;28;20361;-61
2022/03/19 00:35:23;;;;;;;33.13;12.27;;;;;;;;;;4968940;28;20530;-61
2022/03/19 00:37:50;;;;;;;30.70;13.18;;;;;;;;;;4969096;28;20345;-61
2022/03/19 00:40:18;;;;;;;35.08;13.25;;;;;;;;;;4970100;28;20429;-61
2022/03/19 00:42:44;;;;;;;35.10;13.10;;;;;;;;;;4969585;28;20415;-61
2022/03/19 00:45:10;;;;;;;32.22;14.18;;;;;;;;;;4969358;28;20396;-61
2022/03/19 00:47:35;;;;;;;31.55;12.75;;;;;;;;;;4969011;28;20507;-60
2022/03/19 00:50:05;;;;;;;34.15;12.82;;;;;;;;;;4969306;28;20622;-61
2022/03/19 00:52:30;;;;;;;30.52;12.88;;;;;;;;;;4968910;28;20388;-61
2022/03/19 00:54:55;;;;;;;36.47;12.63;;;;;;;;;;4969183;28;20368;-60
2022/03/19 00:57:21;;;;;;;26.70;13.18;;;;;;;;;;4969985;28;20334;-61
2022/03/19 00:59:46;;;;;;;34.20;12.23;;;;;;;;;;4969423;28;20423;-61
2022/03/19 01:02:11;;;;;;;30.70;12.43;;;;;;;;;;4979470;28;20496;-61
2022/03/19 01:04:37;;;;;;;29.75;11.05;;;;;;;;;;4968769;28;20471;-62
2022/03/19 01:07:02;;;;;;;31.45;13.40;;;;;;;;;;4969440;28;20329;-61
2022/03/19 01:09:27;;;;;;;28.75;11.32;;;;;;;;;;4969108;28;20452;-61
2022/03/19 01:11:53;;;;;;;27.35;12.02;;;;;;;;;;4970076;28;20404;-61
2022/03/19 01:14:18;;;;;;;27.88;11.75;;;;;;;;;;4969833;28;20470;-61
2022/03/19 01:16:43;;;;;;;28.92;12.40;;;;;;;;;;4969313;28;20397;-61
2022/03/19 01:19:09;;;;;;;31.90;12.93;;;;;;;;;;4969524;28;20425;-60
2022/03/19 01:21:35;;;;;;;27.25;12.48;;;;;;;;;;4970448;28;20467;-61
2022/03/19 01:24:02;;;;;;;28.05;12.95;;;;;;;;;;4968761;28;20345;-61
2022/03/19 01:26:27;;;;;;;28.50;11.98;;;;;;;;;;4971694;28;20514;-60
2022/03/19 01:28:52;;;;;;;31.17;11.80;;;;;;;;;;4973876;28;20368;-61
2022/03/19 01:31:19;;;;;;;30.38;11.85;;;;;;;;;;4973304;28;20332;-61
2022/03/19 01:33:45;;;;;;;30.08;11.88;;;;;;;;;;4973327;28;20333;-61
2022/03/19 01:36:10;;;;;;;34.40;12.55;;;;;;;;;;4972056;28;20321;-61
2022/03/19 01:38:37;;;;;;;23.90;10.63;;;;;;;;;;4972800;28;20128;-61
2022/03/19 01:41:02;;;;;;;30.00;11.35;;;;;;;;;;4972280;28;20436;-61
2022/03/19 01:43:27;;;;;;;32.10;11.75;;;;;;;;;;4972467;28;20025;-61
2022/03/19 01:45:53;;;;;;;27.38;11.38;;;;;;;;;;4974390;28;20388;-61
2022/03/19 01:48:19;;;;;;;29.08;11.63;;;;;;;;;;4992990;28;20455;-61
2022/03/19 01:50:44;;;;;;;29.83;12.68;;;;;;;;;;4991976;28;20434;-61
2022/03/19 01:53:09;;;;;;;30.17;12.75;;;;;;;;;;4991591;28;20460;-61
2022/03/19 01:55:35;;;;;;;28.92;10.95;;;;;;;;;;4991793;28;20094;-61
2022/03/19 01:58:00;;;;;;;28.60;11.10;;;;;;;;;;4991854;28;20020;-63
2022/03/19 02:00:26;;;;;;;22.17;11.02;;;;;;;;;;4973858;28;20317;-61
2022/03/19 02:02:52;;;;;;;29.08;11.80;;;;;;;;;;4993231;28;20280;-61
2022/03/19 02:05:19;;;;;;;32.38;12.40;;;;;;;;;;4993652;28;20416;-60
2022/03/19 02:07:46;;;;;;;26.58;11.30;;;;;;;;;;4991272;28;20454;-61
2022/03/19 02:10:14;;;;;;;26.00;11.05;;;;;;;;;;4993082;28;20459;-61
2022/03/19 02:12:40;;;;;;;26.65;11.40;;;;;;;;;;4992357;28;20518;-61
2022/03/19 02:15:07;;;;;;;27.65;11.52;;;;;;;;;;4973565;28;20328;-61
2022/03/19 02:17:33;;;;;;;23.67;11.27;;;;;;;;;;4991184;28;20495;-61
2022/03/19 02:20:01;;;;;;;31.50;12.40;;;;;;;;;;4974263;28;20395;-61
2022/03/19 02:22:27;;;;;;;26.77;11.70;;;;;;;;;;4991587;28;20396;-61
2022/03/19 02:27:38;;;;;;;23.00;10.38;;;;;;;;;;4992288;28;20447;-60
2022/03/19 02:30:05;;;;;;;27.10;11.38;;;;;;;;;;4990856;28;20379;-61
2022/03/19 02:32:31;;;;;;;31.13;12.45;;;;;;;;;;4992456;28;20436;-61
2022/03/19 02:34:56;;;;;;;28.75;11.38;;;;;;;;;;4990558;28;20348;-60
2022/03/19 02:37:22;;;;;;;27.02;11.32;;;;;;;;;;4990572;28;20120;-61
2022/03/19 02:39:47;;;;;;;25.65;10.07;;;;;;;;;;4990903;28;20424;-62
2022/03/19 02:42:16;;;;;;;28.02;11.88;;;;;;;;;;4990923;28;20110;-61
2022/03/19 02:44:41;;;;;;;24.83;11.23;;;;;;;;;;4990622;28;20448;-61
2022/03/19 02:47:07;;;;;;;21.55;10.70;;;;;;;;;;4990500;28;20471;-60
2022/03/19 02:49:33;;;;;;;26.15;11.13;;;;;;;;;;4991414;28;20366;-60
2022/03/19 02:51:58;;;;;;;30.42;12.75;;;;;;;;;;4990666;28;20478;-61
2022/03/19 02:54:26;;;;;;;23.75;11.85;;;;;;;;;;4990517;28;20435;-61
2022/03/19 02:56:53;;;;;;;23.00;10.35;;;;;;;;;;4991142;28;20468;-61
2022/03/19 02:59:20;;;;;;;28.70;11.90;;;;;;;;;;4990801;28;20429;-62
2022/03/19 03:02:00;;;;;;;24.42;10.52;;;;;;;;;;4991638;28;20355;-60
2022/03/19 03:04:26;;;;;;;29.92;12.15;;;;;;;;;;4990649;28;20482;-61
2022/03/19 03:06:54;;;;;;;22.73;11.15;;;;;;;;;;4990554;28;20507;-61
2022/03/19 03:09:20;;;;;;;22.35;9.77;;;;;;;;;;4989960;28;20463;-62
2022/03/19 03:11:46;;;;;;;21.88;10.40;;;;;;;;;;4972162;28;20456;-61
2022/03/19 03:14:13;;;;;;;24.42;10.73;;;;;;;;;;4991827;28;20394;-61
2022/03/19 03:16:40;;;;;;;28.83;11.07;;;;;;;;;;4989895;28;20025;-61
2022/03/19 03:19:07;;;;;;;25.48;11.00;;;;;;;;;;4972376;28;20482;-61
2022/03/19 03:21:33;;;;;;;23.17;10.73;;;;;;;;;;4990123;28;20467;-61
2022/03/19 03:23:59;;;;;;;27.30;11.45;;;;;;;;;;4989634;28;20482;-61
2022/03/19 03:26:24;;;;;;;26.67;11.73;;;;;;;;;;4989774;28;20368;-61
2022/03/19 03:28:50;;;;;;;25.13;11.55;;;;;;;;;;4990493;28;20285;-61
2022/03/19 03:31:15;;;;;;;27.27;12.02;;;;;;;;;;4989713;28;20414;-61
2022/03/19 03:33:41;;;;;;;28.33;11.48;;;;;;;;;;4989846;28;20412;-61
2022/03/19 03:36:07;;;;;;;27.08;11.07;;;;;;;;;;4990610;28;20175;-61
2022/03/19 03:38:32;;;;;;;23.98;10.93;;;;;;;;;;4990226;28;20438;-61
2022/03/19 03:40:58;;;;;;;25.42;11.82;;;;;;;;;;4989402;28;20411;-61
2022/03/19 03:43:23;;;;;;;24.85;11.40;;;;;;;;;;4989515;28;20335;-63
2022/03/19 03:45:49;;;;;;;24.77;11.05;;;;;;;;;;4989266;28;20547;-61
2022/03/19 03:48:15;;;;;;;28.50;11.05;;;;;;;;;;4988892;28;20444;-61
2022/03/19 03:50:40;;;;;;;19.63;11.32;;;;;;;;;;4989235;28;20502;-62
2022/03/19 03:53:06;;;;;;;26.08;10.57;;;;;;;;;;4989698;28;20459;-61
2022/03/19 03:55:33;;;;;;;27.58;11.48;;;;;;;;;;4990741;28;20320;-61
2022/03/19 03:58:03;;;;;;;25.60;12.00;;;;;;;;;;4989468;28;20416;-61
2022/03/19 04:00:28;;;;;;;26.92;11.02;;;;;;;;;;4989369;28;20355;-61
2022/03/19 04:02:54;;;;;;;24.48;11.70;;;;;;;;;;4989298;28;20392;-61
2022/03/19 04:05:19;;;;;;;26.17;11.65;;;;;;;;;;4989287;28;20337;-61
2022/03/19 04:07:45;;;;;;;30.05;11.43;;;;;;;;;;4989247;28;20052;-61
2022/03/19 04:10:11;;;;;;;24.05;10.55;;;;;;;;;;4989462;28;20028;-61
2022/03/19 04:12:36;;;;;;;21.50;10.55;;;;;;;;;;4989972;28;20496;-61
2022/03/19 04:15:02;;;;;;;28.60;11.80;;;;;;;;;;4990081;28;20403;-62
2022/03/19 04:17:28;;;;;;;29.38;10.93;;;;;;;;;;4990020;28;20399;-61
2022/03/19 04:19:53;;;;;;;25.05;10.75;;;;;;;;;;4990330;28;20032;-61
2022/03/19 04:22:18;;;;;;;21.70;11.48;;;;;;;;;;4989076;28;20466;-61
2022/03/19 04:24:44;;;;;;;24.67;12.10;;;;;;;;;;4988797;28;20504;-61
2022/03/19 04:27:10;;;;;;;25.98;10.82;;;;;;;;;;4989638;28;20468;-63
2022/03/19 04:29:36;;;;;;;28.77;10.55;;;;;;;;;;4989411;28;20412;-61
2022/03/19 04:32:01;;;;;;;23.17;10.82;;;;;;;;;;4989131;28;20404;-61
2022/03/19 04:34:26;;;;;;;24.67;11.68;;;;;;;;;;4988307;28;20345;-61
2022/03/19 04:36:52;;;;;;;28.17;10.55;;;;;;;;;;4989989;28;20378;-61
2022/03/19 04:39:18;;;;;;;26.60;10.85;;;;;;;;;;4989032;28;20440;-61
2022/03/19 04:41:43;;;;;;;22.33;11.10;;;;;;;;;;4971691;28;20109;-62
2022/03/19 04:44:09;;;;;;;22.63;9.90;;;;;;;;;;4988636;28;20409;-61
2022/03/19 04:46:35;;;;;;;22.13;10.32;;;;;;;;;;4989846;28;20420;-61
2022/03/19 04:49:00;;;;;;;24.08;11.15;;;;;;;;;;4988629;28;20389;-61
2022/03/19 04:51:34;;;;;;;22.17;9.85;;;;;;;;;;4988469;28;20390;-61
2022/03/19 04:54:00;;;;;;;26.92;10.27;;;;;;;;;;4988612;28;20439;-61
2022/03/19 04:56:27;;;;;;;26.42;10.40;;;;;;;;;;4988935;28;20494;-61
2022/03/19 04:58:54;;;;;;;23.45;10.82;;;;;;;;;;4988818;28;20059;-63
2022/03/19 05:01:21;;;;;;;21.17;9.57;;;;;;;;;;4992277;28;20347;-60
2022/03/19 05:03:46;;;;;;;25.65;10.48;;;;;;;;;;4992399;28;20444;-60
2022/03/19 05:06:12;;;;;;;26.77;11.07;;;;;;;;;;4992169;28;20539;-61
2022/03/19 05:08:37;;;;;;;21.63;9.65;;;;;;;;;;4993569;28;20367;-61
2022/03/19 05:11:17;;;;;;;25.95;11.00;;;;;;;;;;4992699;28;20343;-61
2022/03/19 05:13:44;;;;;;;25.02;11.43;;;;;;;;;;4992607;28;20424;-64
2022/03/19 05:16:11;;;;;;;24.55;11.02;;;;;;;;;;4992268;28;20439;-61
2022/03/19 05:18:36;;;;;;;22.55;10.88;;;;;;;;;;4974078;28;20384;-61
2022/03/19 05:21:02;;;;;;;28.88;11.82;;;;;;;;;;4992181;28;20405;-61
2022/03/19 05:23:27;;;;;;;27.55;11.70;;;;;;;;;;4992332;28;20424;-61
2022/03/19 05:25:53;;;;;;;23.25;9.93;;;;;;;;;;4993501;28;20533;-61
2022/03/19 05:28:18;;;;;;;24.48;10.82;;;;;;;;;;4992033;28;20491;-61
2022/03/19 05:30:46;;;;;;;20.80;10.43;;;;;;;;;;4992110;28;20361;-61
2022/03/19 05:33:12;;;;;;;32.50;12.30;;;;;;;;;;4974491;28;20352;-61
2022/03/19 05:35:38;;;;;;;25.45;10.48;;;;;;;;;;4970862;28;20378;-61
2022/03/19 05:38:06;;;;;;;26.40;12.05;;;;;;;;;;4972393;28;20423;-61
2022/03/19 05:40:31;;;;;;;26.83;10.60;;;;;;;;;;4971973;28;20436;-61
2022/03/19 05:42:57;;;;;;;30.58;12.48;;;;;;;;;;4972372;28;20329;-61
2022/03/19 05:45:22;;;;;;;24.98;11.48;;;;;;;;;;4972153;28;20376;-60
2022/03/19 05:47:48;;;;;;;21.73;10.23;;;;;;;;;;4970543;28;20034;-61
2022/03/19 05:50:14;;;;;;;27.20;10.85;;;;;;;;;;4972264;28;20470;-61
2022/03/19 05:52:40;;;;;;;22.60;10.95;;;;;;;;;;4972542;28;20436;-61
2022/03/19 05:55:06;;;;;;;24.85;11.13;;;;;;;;;;4972315;28;20452;-61
2022/03/19 05:57:32;;;;;;;27.80;10.95;;;;;;;;;;4970427;28;20340;-61
2022/03/19 05:59:57;;;;;;;24.67;9.70;;;;;;;;;;4972006;28;20344;-61
2022/03/19 06:02:22;;;;;;;24.67;9.98;;;;;;;;;;4971463;28;20344;-63
2022/03/19 06:04:48;;;;;;;21.75;10.35;;;;;;;;;;4972012;28;20562;-61
2022/03/19 06:07:13;;;;;;;22.75;10.65;;;;;;;;;;4971923;28;20395;-61
2022/03/19 06:09:38;;;;;;;23.23;10.43;;;;;;;;;;4973734;28;20441;-61
2022/03/19 06:12:04;;;;;;;21.80;10.65;;;;;;;;;;4970668;28;20392;-61
2022/03/19 06:14:29;;;;;;;20.88;10.43;;;;;;;;;;4971735;28;20433;-60
2022/03/19 06:16:54;;;;;;;21.73;10.50;;;;;;;;;;4971695;28;20456;-61
2022/03/19 06:19:20;;;;;;;28.80;11.23;;;;;;;;;;4971705;28;20357;-62
2022/03/19 06:21:46;;;;;;;26.27;11.00;;;;;;;;;;4971590;28;20464;-61
2022/03/19 06:24:11;;;;;;;28.05;10.88;;;;;;;;;;4971623;28;20037;-61
2022/03/19 06:26:37;;;;;;;19.58;11.00;;;;;;;;;;4971667;28;20535;-61
2022/03/19 06:29:02;;;;;;;23.45;10.77;;;;;;;;;;4971673;28;20344;-62
2022/03/19 06:31:28;;;;;;;22.73;10.57;;;;;;;;;;4971450;28;20456;-61
2022/03/19 06:33:53;;;;;;;24.02;10.00;;;;;;;;;;4972803;28;20419;-61
2022/03/19 06:39:04;;;;;;;23.88;10.88;;;;;;;;;;4990809;28;20526;-61
2022/03/19 06:41:29;;;;;;;26.02;11.13;;;;;;;;;;4990870;28;20451;-63
2022/03/19 06:43:54;;;;;;;21.95;10.55;;;;;;;;;;4990696;28;20344;-62
2022/03/19 06:46:20;;;;;;;23.02;9.98;;;;;;;;;;4990672;28;20466;-62
2022/03/19 06:48:46;;;;;;;26.23;10.70;;;;;;;;;;4990938;28;20133;-62
2022/03/19 06:51:12;;;;;;;25.17;11.75;;;;;;;;;;4990799;28;20025;-63
2022/03/19 06:53:38;;;;;;;28.65;12.30;;;;;;;;;;4991137;28;20454;-61
2022/03/19 06:56:04;;;;;;;24.02;10.35;;;;;;;;;;4991318;28;20428;-61
2022/03/19 06:58:29;;;;;;;23.58;11.18;;;;;;;;;;4991048;28;20368;-62
2022/03/19 07:00:54;;;;;;;19.60;9.45;;;;;;;;;;4991041;28;20411;-61
2022/03/19 07:03:20;;;;;;;22.42;10.60;;;;;;;;;;4990127;28;20437;-61
2022/03/19 07:05:45;;;;;;;24.88;9.88;;;;;;;;;;4990255;28;20036;-61
2022/03/19 07:08:11;;;;;;;22.02;9.98;;;;;;;;;;4990085;28;20331;-61
2022/03/19 07:10:36;;;;;;;21.70;9.80;;;;;;;;;;4991625;28;20416;-62
2022/03/19 07:13:03;;;;;;;18.25;9.98;;;;;;;;;;4991091;28;20404;-62
2022/03/19 07:15:28;;;;;;;25.98;11.30;;;;;;;;;;4990464;28;20436;-62
2022/03/19 07:17:55;;;;;;;24.67;12.07;;;;;;;;;;4989807;28;20364;-62
2022/03/19 07:20:21;;;;;;;29.10;13.00;;;;;;;;;;4990340;28;20107;-61
2022/03/19 07:23:00;;;;;;;31.63;13.73;;;;;;;;;;4990122;28;20037;-62
2022/03/19 07:25:27;;;;;;;33.30;14.63;;;;;;;;;;4990304;28;20341;-62
2022/03/19 07:27:54;;;;;;;41.30;14.93;;;;;;;;;;4989607;28;20135;-63
2022/03/19 07:30:20;;;;;;;34.67;15.65;;;;;;;;;;4990099;28;20530;-61
2022/03/19 07:32:46;;;;;;;37.67;15.82;;;;;;;;;;4989772;28;20440;-62
2022/03/19 07:35:14;;;;;;;36.10;15.88;;;;;;;;;;4989080;28;20341;-62
2022/03/19 07:37:41;;;;;;;40.78;15.95;;;;;;;;;;4990256;28;20087;-62
2022/03/19 07:40:08;;;;;;;39.58;15.52;;;;;;;;;;4989395;28;20511;-62
2022/03/19 07:42:34;;;;;;;32.67;15.05;;;;;;;;;;4989888;28;20455;-62
2022/03/19 07:45:00;;;;;;;38.08;14.43;;;;;;;;;;4989671;28;20428;-64
2022/03/19 07:47:25;;;;;;;38.53;15.38;;;;;;;;;;4989611;28;20620;-62
2022/03/19 07:49:51;;;;;;;37.63;14.25;;;;;;;;;;4989357;28;20541;-62
2022/03/19 07:52:16;;;;;;;40.70;16.38;;;;;;;;;;4989261;28;20356;-62
2022/03/19 07:54:41;;;;;;;35.80;13.82;;;;;;;;;;4990351;28;20037;-62
2022/03/19 07:57:10;;;;;;;35.63;13.73;;;;;;;;;;4989127;28;20356;-62
2022/03/19 07:59:35;;;;;;;34.47;14.35;;;;;;;;;;4989061;28;20317;-62
2022/03/19 08:02:01;;;;;;;50.42;14.73;;;;;;;;;;4988773;28;20025;-62
2022/03/19 08:04:26;;;;;;;38.50;14.02;;;;;;;;;;4989274;28;20357;-62
2022/03/19 08:06:55;;;;;;;41.70;15.43;;;;;;;;;;4989014;28;20519;-62
2022/03/19 08:09:22;;;;;;;39.95;14.60;;;;;;;;;;4989373;28;20446;-62
2022/03/19 08:11:49;;;;;;;40.15;14.95;;;;;;;;;;4989157;28;20535;-62
2022/03/19 08:14:15;;;;;;;35.53;14.30;;;;;;;;;;4990321;28;20355;-62
2022/03/19 08:16:41;;;;;;;32.03;13.50;;;;;;;;;;4988847;28;20352;-62
2022/03/19 08:19:07;;;;;;;42.10;13.73;;;;;;;;;;4990162;28;20028;-62
2022/03/19 08:21:33;;;;;;;34.78;12.52;;;;;;;;;;4988940;28;20439;-63
2022/03/19 08:23:58;;;;;;;42.72;13.40;;;;;;;;;;4989061;28;20324;-63
2022/03/19 08:26:23;;;;;;;43.42;13.23;;;;;;;;;;4988952;28;20432;-62
2022/03/19 08:28:49;;;;;;;40.70;13.55;;;;;;;;;;4988935;28;20332;-62
2022/03/19 08:31:14;;;;;;;38.65;14.18;;;;;;;;;;4988633;28;20448;-62
2022/03/19 08:33:39;;;;;;;33.83;11.93;;;;;;;;;;4989225;28;20057;-62
2022/03/19 08:36:05;;;;;;;30.83;11.77;;;;;;;;;;4988010;28;20377;-64
2022/03/19 08:41:14;;;;;;;32.85;11.93;;;;;;;;;;4988817;28;20351;-62
2022/03/19 08:43:39;;;;;;;33.15;11.50;;;;;;;;;;4989440;28;20069;-63
2022/03/19 08:46:05;;;;;;;38.03;11.90;;;;;;;;;;4989181;28;20500;-62
2022/03/19 08:48:31;;;;;;;35.72;12.00;;;;;;;;;;4988430;28;20458;-62
2022/03/19 08:51:39;;;;;;;32.47;10.85;;;;;;;;;;4988425;28;20432;-62
2022/03/19 08:53:45;;;;;;;36.97;13.07;;;;;;;;;;4988236;28;20360;-62
2022/03/19 08:56:10;;;;;;;31.02;10.88;;;;;;;;;;4988650;28;20388;-62
2022/03/19 08:58:37;;;;;;;47.15;13.20;;;;;;;;;;4988434;28;20432;-62
2022/03/19 09:01:03;;;;;;;29.75;10.90;;;;;;;;;;4988304;28;20450;-62
2022/03/19 09:03:28;;;;;;;34.88;11.68;;;;;;;;;;4988078;28;20028;-62
2022/03/19 09:05:53;;;;;;;32.17;10.60;;;;;;;;;;4989006;28;20428;-62
2022/03/19 09:08:19;;;;;;;30.73;10.85;;;;;;;;;;4988222;28;20422;-62
2022/03/19 09:10:44;;;;;;;27.05;10.60;;;;;;;;;;4988334;28;20375;-62
2022/03/19 09:13:09;;;;;;;32.75;10.88;;;;;;;;;;4988229;28;20087;-62
2022/03/19 09:15:35;;;;;;;28.70;10.35;;;;;;;;;;4988304;28;20496;-62
2022/03/19 09:18:00;;;;;;;25.40;10.20;;;;;;;;;;4988746;28;20554;-62
2022/03/19 09:20:25;;;;;;;29.23;10.75;;;;;;;;;;4988319;28;20344;-62
2022/03/19 09:22:51;;;;;;;30.05;10.27;;;;;;;;;;4988344;28;20329;-62
2022/03/19 09:25:16;;;;;;;26.83;8.32;;;;;;;;;;4988421;28;20425;-62
2022/03/19 09:27:41;;;;;;;25.73;8.77;;;;;;;;;;4988191;28;20029;-62
2022/03/19 09:30:08;;;;;;;22.85;8.70;;;;;;;;;;4988025;28;20400;-62
2022/03/19 09:32:35;;;;;;;28.00;10.15;;;;;;;;;;4988217;28;20474;-63
2022/03/19 09:35:00;;;;;;;31.45;10.13;;;;;;;;;;4987835;28;20356;-62
2022/03/19 09:37:26;;;;;;;27.45;10.35;;;;;;;;;;4988439;28;20332;-62
2022/03/19 09:39:52;;;;;;;32.47;10.98;;;;;;;;;;4970193;28;20028;-62
2022/03/19 09:42:18;;;;;;;29.65;9.10;;;;;;;;;;4988029;28;20460;-62
2022/03/19 09:44:43;;;;;;;22.48;9.48;;;;;;;;;;4989900;28;20363;-62
2022/03/19 09:47:09;;;;;;;28.52;8.45;;;;;;;;;;4991129;28;20456;-62
2022/03/19 09:49:34;;;;;;;32.63;10.35;;;;;;;;;;4991899;28;20044;-62
2022/03/19 09:52:02;;;;;;;25.73;8.68;;;;;;;;;;4992626;28;20494;-63
2022/03/19 09:54:27;;;;;;;25.08;8.55;;;;;;;;;;4991901;28;20372;-62
2022/03/19 09:56:53;;;;;;;29.30;8.82;;;;;;;;;;4991116;28;20355;-62
2022/03/19 09:59:22;;;;;;;21.83;8.88;;;;;;;;;;4991529;28;20029;-63
2022/03/19 10:01:48;;;;;;;21.02;8.70;;;;;;;;;;4991191;28;20479;-62
2022/03/19 10:04:17;;;;;;;25.02;8.60;;;;;;;;;;4991570;28;20515;-62
2022/03/19 10:09:45;;;;;;;20.25;7.88;;;;;;;;;;4993251;28;20051;-64
2022/03/19 10:12:16;;;;;;;20.85;8.43;;;;;;;;;;4991340;28;20060;-62
2022/03/19 10:14:46;;;;;;;25.20;9.02;;;;;;;;;;4991380;28;20344;-62
2022/03/19 10:17:28;;;;;;;23.98;8.32;;;;;;;;;;4991297;28;20079;-62
2022/03/19 10:19:57;;;;;;;20.98;7.50;;;;;;;;;;4991233;28;20352;-62
2022/03/19 10:22:25;;;;;;;20.00;8.02;;;;;;;;;;4990737;28;20133;-62
2022/03/19 10:24:55;;;;;;;18.23;6.78;;;;;;;;;;4991388;28;20602;-62
2022/03/19 10:27:21;;;;;;;20.05;7.78;;;;;;;;;;4991998;28;20384;-62
2022/03/19 10:29:46;;;;;;;20.20;8.07;;;;;;;;;;4991285;28;20332;-62
2022/03/19 10:32:12;;;;;;;19.55;7.57;;;;;;;;;;4990661;28;20460;-62
2022/03/19 10:34:40;;;;;;;19.15;7.65;;;;;;;;;;4984480;28;20460;-62
2022/03/19 10:37:05;;;;;;;15.05;6.53;;;;;;;;;;4990026;28;20421;-62
2022/03/19 10:39:31;;;;;;;17.10;6.78;;;;;;;;;;4991252;28;20350;-62
2022/03/19 10:41:58;;;;;;;18.70;7.40;;;;;;;;;;4991338;28;20336;-62
2022/03/19 10:44:26;;;;;;;16.65;7.03;;;;;;;;;;4991011;28;20377;-62
2022/03/19 10:46:56;;;;;;;27.15;8.55;;;;;;;;;;4991386;28;20327;-62
2022/03/19 10:49:24;;;;;;;20.70;7.63;;;;;;;;;;4991824;28;20425;-62
2022/03/19 10:51:52;;;;;;;19.63;8.18;;;;;;;;;;4990870;28;20387;-62
2022/03/19 10:54:17;;;;;;;21.38;7.03;;;;;;;;;;4990375;28;20101;-62
2022/03/19 10:56:44;;;;;;;20.67;8.15;;;;;;;;;;4991010;28;20440;-62
2022/03/19 10:59:09;;;;;;;23.92;8.45;;;;;;;;;;4991323;28;20033;-62
2022/03/19 11:01:35;;;;;;;25.58;8.38;;;;;;;;;;4990440;28;20473;-62
2022/03/19 11:04:02;;;;;;;26.05;7.88;;;;;;;;;;4990640;28;20471;-63
2022/03/19 11:06:29;;;;;;;28.35;8.90;;;;;;;;;;4988656;28;20360;-62
2022/03/19 11:08:55;;;;;;;26.58;10.10;;;;;;;;;;4972746;28;20704;-62
2022/03/19 11:11:46;;;;;;;24.58;8.68;;;;;;;;;;4990054;28;20118;-62
2022/03/19 11:14:19;;;;;;;29.17;8.27;;;;;;;;;;4990005;28;20348;-62
2022/03/19 11:17:23;;;;;;;34.40;10.98;;;;;;;;;;4990409;28;20499;-62
2022/03/19 11:19:32;;;;;;;34.83;9.80;;;;;;;;;;4975954;28;20055;-62
2022/03/19 11:21:58;;;;;;;28.08;9.07;;;;;;;;;;4971964;28;20413;-62
2022/03/19 11:24:25;;;;;;;33.33;9.65;;;;;;;;;;4990089;28;20501;-62
2022/03/19 11:26:52;;;;;;;33.10;8.77;;;;;;;;;;4972053;28;20474;-62
2022/03/19 11:29:20;;;;;;;28.27;10.10;;;;;;;;;;4972326;28;20317;-62
2022/03/19 11:31:57;;;;;;;36.08;8.48;;;;;;;;;;4989775;28;20519;-62
2022/03/19 11:34:23;;;;;;;29.70;9.27;;;;;;;;;;4990730;28;20475;-62
2022/03/19 11:36:59;;;;;;;29.92;9.50;;;;;;;;;;4989453;28;20324;-62
2022/03/19 11:39:26;;;;;;;36.35;9.05;;;;;;;;;;4989601;28;20033;-62
2022/03/19 11:41:51;;;;;;;29.52;8.85;;;;;;;;;;4991464;28;20416;-62
2022/03/19 11:44:24;;;;;;;37.55;9.63;;;;;;;;;;4990442;28;20476;-62
2022/03/19 11:47:05;;;;;;;27.88;9.20;;;;;;;;;;4989804;28;20029;-62
2022/03/19 11:49:52;;;;;;;29.25;9.02;;;;;;;;;;4989776;28;20143;-62
2022/03/19 11:52:23;;;;;;;33.65;7.85;;;;;;;;;;4989627;28;20431;-62
2022/03/19 11:55:18;;;;;;;23.92;7.97;;;;;;;;;;4989324;28;20324;-62
2022/03/19 11:57:46;;;;;;;24.65;7.70;;;;;;;;;;4960072;28;20365;-62
2022/03/19 12:00:19;;;;;;;27.48;9.15;;;;;;;;;;4990015;28;20373;-62
2022/03/19 12:03:14;;;;;;;28.15;8.20;;;;;;;;;;4989348;28;20364;-62
2022/03/19 12:05:48;;;;;;;28.38;9.27;;;;;;;;;;4989121;28;20309;-62
2022/03/19 12:08:20;;;;;;;26.20;7.90;;;;;;;;;;4989267;28;20412;-62
2022/03/19 12:10:59;;;;;;;27.23;8.70;;;;;;;;;;4990531;28;20092;-62
2022/03/19 12:13:28;;;;;;;23.08;7.55;;;;;;;;;;4990261;28;20021;-62
2022/03/19 12:16:02;;;;;;;22.88;7.13;;;;;;;;;;4989255;28;20399;-62
2022/03/19 12:18:39;;;;;;;26.15;8.55;;;;;;;;;;4971544;28;20028;-62
2022/03/19 12:21:05;;;;;;;20.05;7.40;;;;;;;;;;4989460;28;20436;-62
2022/03/19 12:24:06;;;;;;;23.98;8.07;;;;;;;;;;4988761;28;20376;-63
2022/03/19 12:26:49;;;;;;;25.83;8.23;;;;;;;;;;4989162;28;20037;-62
2022/03/19 12:29:17;;;;;;;21.42;7.97;;;;;;;;;;4989015;28;20459;-63
2022/03/19 12:31:45;;;;;;;27.58;7.97;;;;;;;;;;4988812;28;20383;-62
2022/03/19 12:34:22;;;;;;;17.38;7.20;;;;;;;;;;4988557;28;20365;-62
2022/03/19 12:36:48;;;;;;;17.38;6.88;;;;;;;;;;4988853;28;20527;-62
2022/03/19 12:39:14;;;;;;;21.65;8.00;;;;;;;;;;4989330;28;20428;-62
2022/03/19 12:41:41;;;;;;;21.67;6.95;;;;;;;;;;4988637;28;20436;-62
2022/03/19 12:44:10;;;;;;;20.10;6.45;;;;;;;;;;4989804;28;20047;-62
2022/03/19 12:46:37;;;;;;;22.65;6.82;;;;;;;;;;4970734;28;20352;-62
2022/03/19 12:49:12;;;;;;;15.57;6.47;;;;;;;;;;4988511;28;20455;-62
2022/03/19 12:51:43;;;;;;;20.48;5.95;;;;;;;;;;4988608;28;20297;-62
2022/03/19 12:54:28;;;;;;;17.27;6.80;;;;;;;;;;4988821;28;20458;-62
2022/03/19 12:57:07;;;;;;;17.33;6.80;;;;;;;;;;4988678;28;20347;-62
2022/03/19 12:59:33;;;;;;;22.85;6.65;;;;;;;;;;4988577;28;20420;-62
2022/03/19 13:01:58;;;;;;;15.73;6.72;;;;;;;;;;4988608;28;20549;-62
2022/03/19 13:04:29;;;;;;;17.42;6.18;;;;;;;;;;4989268;28;20320;-62
2022/03/19 13:06:55;;;;;;;17.95;5.97;;;;;;;;;;4988562;28;20088;-62
2022/03/19 13:09:31;;;;;;;21.73;7.03;;;;;;;;;;4971910;28;20321;-62
2022/03/19 13:11:56;;;;;;;19.85;6.63;;;;;;;;;;4988989;28;20490;-62
2022/03/19 13:14:24;;;;;;;13.52;6.03;;;;;;;;;;4989039;28;20488;-62
2022/03/19 13:16:52;;;;;;;18.38;6.55;;;;;;;;;;4988282;28;20056;-62
2022/03/19 13:19:18;;;;;;;18.85;6.75;;;;;;;;;;4989523;28;20320;-62
2022/03/19 13:21:49;;;;;;;20.30;7.32;;;;;;;;;;4991585;28;20293;-62
2022/03/19 13:24:16;;;;;;;19.67;6.78;;;;;;;;;;4991953;28;20377;-62
2022/03/19 13:26:42;;;;;;;25.83;8.45;;;;;;;;;;4992526;28;20406;-62
2022/03/19 13:29:13;;;;;;;26.05;23.48;;;;;;;;;;4992372;28;20344;-62
2022/03/19 13:31:47;;;;;;;32.90;28.50;;;;;;;;;;4993114;28;20422;-62
2022/03/19 13:34:17;;;;;;;19.40;7.07;;;;;;;;;;4992009;28;20494;-62
2022/03/19 13:36:58;;;;;;;20.58;6.43;;;;;;;;;;4992057;28;20475;-62
2022/03/19 13:39:29;;;;;;;15.27;5.90;;;;;;;;;;4974376;28;20086;-63
2022/03/19 13:42:06;;;;;;;18.27;6.28;;;;;;;;;;4991865;28;20471;-62
2022/03/19 13:44:35;;;;;;;16.77;6.25;;;;;;;;;;4992040;28;20344;-62
2022/03/19 13:47:05;;;;;;;13.07;5.87;;;;;;;;;;4992428;28;20340;-62
2022/03/19 13:49:35;;;;;;;18.63;5.93;;;;;;;;;;4992958;28;20444;-62
2022/03/19 13:52:00;;;;;;;13.20;5.82;;;;;;;;;;4991641;28;20096;-63
2022/03/19 13:54:42;;;;;;;13.10;4.78;;;;;;;;;;4992001;28;20689;-62
2022/03/19 13:57:11;;;;;;;14.80;5.80;;;;;;;;;;4991524;28;20333;-62
2022/03/19 13:59:38;;;;;;;14.05;5.90;;;;;;;;;;4991730;28;20047;-62
2022/03/19 14:02:04;;;;;;;15.38;5.47;;;;;;;;;;4991502;28;20333;-62
2022/03/19 14:04:29;;;;;;;12.23;5.47;;;;;;;;;;4991498;28;20083;-63
2022/03/19 14:06:55;;;;;;;12.57;6.05;;;;;;;;;;4991554;28;20466;-62
2022/03/19 14:09:21;;;;;;;16.17;6.10;;;;;;;;;;4992843;28;20447;-62
2022/03/19 14:11:48;;;;;;;17.23;5.85;;;;;;;;;;4991121;28;20483;-62
2022/03/19 14:14:17;;;;;;;13.23;5.53;;;;;;;;;;4991764;28;20488;-62
2022/03/19 14:17:01;;;;;;;16.17;4.90;;;;;;;;;;4991912;28;20374;-62
2022/03/19 14:19:27;;;;;;;13.35;5.05;;;;;;;;;;4992929;28;20325;-62
2022/03/19 14:21:53;;;;;;;11.00;5.22;;;;;;;;;;4991018;28;20337;-62
2022/03/19 14:24:18;;;;;;;24.23;6.32;;;;;;;;;;4992559;28;20332;-62
2022/03/19 14:26:45;;;;;;;10.35;5.03;;;;;;;;;;4992580;28;20424;-62
2022/03/19 14:29:11;;;;;;;14.50;5.72;;;;;;;;;;4990960;28;20534;-62
2022/03/19 14:31:36;;;;;;;11.60;6.07;;;;;;;;;;4990941;28;20345;-62
2022/03/19 14:34:01;;;;;;;7.95;4.93;;;;;;;;;;4990538;28;20396;-62